Pagrindinis puslapis
METAR-TAF:

METAR-TAF

Oro uostai :

Bandžarmasinas, Indonezija

platuma: 03-26-32S, ilguma: 114-45-45E, Aukštis: 20 m

Dabartinis oras

Ataskaita buvo paskelbta 6 valandos ir 42 minutes, ne 14:00 UTC
Vėjas 2 kt nuo kintamojo kryptimis
Temperatūra 26°C
Drėgmė 79%
Slėgis 1011 hPa
Matomumas: 2000 m
dūmai

METAR: WAOO 201400Z VRB02KT 2000 FU 26/22 Q1011

Laikas: 03:42 (20:42 UTC)

Prognozė

Ataskaita buvo paskelbta 3 valandos ir 42 minutes, ne 17:00 UTC
Prognozė galioja nuo 20 metu 18 UTC su 21 metu 18 UTC
Vėjas 6 kt iš Pietų/Pietryčių
Matomumas: 6000 m
Išsisklaidę debesys ne aukštis 2000 ft
Laikinai
nuo 20 metu 21 UTC su 21 metu 02 UTC
Matomumas: 1000 m
dūmai

TAF: WAOO 201700Z 2018/2118 15006KT 6000 SCT020 TEMPO 2021/2102 1000 FU

Orai ataskaitas ir orų prognozės (METAR, TAF).

turimą stotys yra geltonos ir raudonos taškus žemėlapyje.

Perkelti pele per norėdami pamatyti stoties vardą.

Tada spustelėkite, norėdami matyti oro stebėjimo ir prognozės.

Norėdami pakeisti žemėlapį: spustelėkite ant žalios mygtukų su juodo kryžiaus žemyn,; žalią mygtuką su brūkšneliu, jei norite nutolinti; arba žalių rodyklių gretimoms žemėlapius.


METAR-TAF: